ADDS METAR Data INFO
IDs: Format: Raw Decoded Include TAF

Data at: 0836 UTC 21 Oct 2017

KEWK 210756Z AUTO 18025G34KT 10SM OVC019 19/17 A2973 RMK AO2 PK WND 16034/0754 SLP055 T01940167 PNO $
KEWK 210656Z AUTO 17018G26KT 10SM OVC021 20/17 A2975 RMK AO2 PK WND 17035/0605 SLP060 T02000167 PNO $
KEWK 210556Z AUTO 17027G35KT 10SM OVC023 20/16 A2975 RMK AO2 PK WND 17035/0556 SLP059 6//// T02000161 10222 20200 58010 PNO $
KEWK 210456Z AUTO 17024G33KT 10SM BKN025 OVC031 21/16 A2977 RMK AO2 PK WND 17033/0450 SLP066 T02060161 402560133 PNO $
KEWK 210412Z AUTO 17022G31KT 10SM BKN029 21/16 A2978 RMK AO2 PK WND 17031/0412 PNO $
KEWK 210356Z AUTO 17022G31KT 10SM FEW029 21/16 A2978 RMK AO2 PK WND 17033/0325 SLP073 T02060161 PNO $
KEWK 210256Z AUTO 17020G28KT 10SM CLR 21/16 A2978 RMK AO2 PK WND 17031/0221 SLP072 6//// T02110156 53001 PNO $
KEWK 210156Z AUTO 17019G26KT 10SM CLR 21/14 A2977 RMK AO2 PK WND 17027/0127 SLP071 T02110144 PNO $
KEWK 210056Z AUTO 17017G24KT 10SM BKN044 22/13 A2977 RMK AO2 SLP073 T02170128 PNO $
KEWK 202356Z AUTO 17019G32KT 10SM FEW049 22/13 A2977 RMK AO2 PK WND 17032/2347 SLP072 6//// T02220133 10256 20222 56010 PNO $
KEWK 202256Z AUTO 17022G28KT 10SM CLR 23/14 A2978 RMK AO2 PK WND 17030/2234 SLP073 T02280144 PNO $
KEWK 202156Z AUTO 18024G32KT 10SM FEW042 23/14 A2978 RMK AO2 PK WND 18036/2112 SLP074 T02330144 PNO $
KEWK 202056Z AUTO 17024G35KT 10SM BKN044 OVC050 24/14 A2980 RMK AO2 PK WND 19035/2054 SLP081 6//// T02390144 56025 PNO $
KEWK 201956Z AUTO 17024G36KT 10SM FEW042 24/14 A2982 RMK AO2 PK WND 19036/1947 SLP085 T02440144 PNO $
KEWK 201856Z AUTO 18026G36KT 10SM CLR 25/15 A2983 RMK AO2 PK WND 19038/1826 PRESFR SLP088 T02500150 PNO $
KEWK 201756Z AUTO 17024G32KT 10SM FEW034 24/16 A2988 RMK AO2 PK WND 19035/1740 SLP106 6//// T02440156 10244 20133 58031 PNO $
KEWK 201656Z AUTO 18022G31KT 10SM FEW028 23/16 A2992 RMK AO2 PK WND 20031/1653 SLP122 T02280156 PNO $
KEWK 201556Z AUTO 17019G25KT 10SM CLR 19/14 A2996 RMK AO2 SLP136 T01940144 PNO $
KEWK 201456Z AUTO 17016G24KT 10SM CLR 17/13 A2998 RMK AO2 PK WND 17026/1440 SLP143 6//// T01670128 56011 PNO $
KEWK 201356Z AUTO 17016KT 10SM FEW049 16/12 A2999 RMK AO2 SLP148 T01560122 PNO $
KEWK 201256Z AUTO 17015KT 10SM CLR 14/12 A3000 RMK AO2 SLP150 T01390117 PNO $
KEWK 201156Z AUTO 16014KT 10SM CLR 13/11 A3001 RMK AO2 SLP155 6//// 7//// T01330111 10161 20133 58006 PNO $
KEWK 201056Z AUTO 16011KT 10SM CLR 13/11 A3002 RMK AO2 SLP156 T01330111 PNO $
KEWK 200956Z AUTO 17014KT 10SM CLR 14/12 A3003 RMK AO2 SLP157 T01440117 PNO $
KEWK 200856Z AUTO 17012KT 10SM CLR 14/12 A3003 RMK AO2 SLP158 6//// T01440117 58009 PNO $
KEWK 200756Z AUTO 17012KT 10SM CLR 15/12 A3004 RMK AO2 SLP162 T01500117 TSNO PNO $
KEWK 200656Z AUTO 17012KT 10SM CLR 16/12 A3005 RMK AO2 SLP165 T01560117 PNO $
KEWK 200556Z AUTO 17015KT 10SM CLR 16/12 A3006 RMK AO2 SLP167 6//// T01610122 10206 20156 50001 PNO $
KEWK 200456Z AUTO 17014KT 10SM CLR 16/11 A3007 RMK AO2 SLP172 T01610111 402610083 PNO $
KEWK 200356Z AUTO 17013KT 10SM CLR 16/10 A3006 RMK AO2 SLP172 T01610100 PNO $
KEWK 200256Z AUTO 17013KT 10SM CLR 17/10 A3006 RMK AO2 SLP170 6//// T01670100 53006 PNO $
KEWK 200156Z AUTO 17014KT 10SM CLR 18/09 A3004 RMK AO2 SLP167 T01780094 PNO $
KEWK 200056Z AUTO 16012KT 10SM CLR 19/09 A3004 RMK AO2 SLP169 T01890094 PNO $
KEWK 192356Z AUTO 16011KT 10SM CLR 21/08 A3004 RMK AO2 SLP165 6//// T02060083 10261 20206 55002 PNO $
KEWK 192256Z AUTO 18012KT 10SM CLR 24/09 A3004 RMK AO2 SLP163 T02390089 PNO $
KEWK 192156Z AUTO 18012KT 10SM CLR 24/08 A3004 RMK AO2 SLP163 T02440083 PNO $
KEWK 192056Z AUTO 18014KT 10SM CLR 26/09 A3004 RMK AO2 SLP163 6//// T02560089 56018 TSNO PNO $